createdAt,value
2022-11-23T00:01:20.650Z,79.85
2022-11-23T00:03:50.787Z,79.73
2022-11-23T00:06:25.327Z,79.49
2022-11-23T00:08:54.237Z,79.50
2022-11-23T00:11:23.798Z,79.71
2022-11-23T00:14:00.836Z,79.46
2022-11-23T00:16:31.159Z,79.85
2022-11-23T00:19:03.511Z,79.76
2022-11-23T00:21:34.305Z,80.01
2022-11-23T00:24:02.540Z,80.54
2022-11-23T00:26:30.660Z,80.29
2022-11-23T00:28:58.632Z,80.34
2022-11-23T00:31:35.647Z,80.32
2022-11-23T00:34:03.629Z,80.64
2022-11-23T00:36:32.933Z,80.75
2022-11-23T00:39:01.572Z,80.42
2022-11-23T00:41:29.670Z,80.19
2022-11-23T00:43:57.666Z,80.79
2022-11-23T00:46:26.941Z,80.94
2022-11-23T00:48:56.693Z,80.78
2022-11-23T00:51:28.586Z,80.45
2022-11-23T00:54:00.492Z,80.42
2022-11-23T00:56:29.409Z,80.15
2022-11-23T00:58:59.354Z,80.42
2022-11-23T01:01:31.096Z,81.07
2022-11-23T01:04:00.310Z,80.63
2022-11-23T01:06:32.077Z,80.52
2022-11-23T01:09:03.994Z,81.04
2022-11-23T01:11:33.533Z,81.48
2022-11-23T01:14:02.095Z,81.63
2022-11-23T01:16:32.020Z,81.25
2022-11-23T01:19:02.220Z,80.78
2022-11-23T01:21:31.355Z,81.67
2022-11-23T01:24:05.878Z,81.05
2022-11-23T01:26:33.842Z,80.96
2022-11-23T01:29:01.729Z,81.44
2022-11-23T01:31:30.126Z,80.65
2022-11-23T01:34:02.037Z,80.92
2022-11-23T01:36:32.124Z,80.99
2022-11-23T01:39:03.264Z,81.34
2022-11-23T01:41:33.547Z,81.65
2022-11-23T01:44:22.204Z,81.17
2022-11-23T01:46:55.570Z,81.42
2022-11-23T01:49:25.611Z,81.12
2022-11-23T01:51:57.126Z,81.16
2022-11-23T01:54:33.734Z,80.85
2022-11-23T01:57:07.619Z,80.98
2022-11-23T01:59:36.737Z,80.57
2022-11-23T02:02:07.684Z,80.54
2022-11-23T02:04:40.573Z,80.31
2022-11-23T02:07:09.594Z,80.08
2022-11-23T02:09:39.239Z,80.44
2022-11-23T02:12:11.587Z,80.76
2022-11-23T02:14:41.079Z,80.42
2022-11-23T02:17:09.618Z,80.33
2022-11-23T02:19:49.723Z,80.79
2022-11-23T02:22:29.676Z,80.42
2022-11-23T02:25:20.383Z,80.10
2022-11-23T02:27:50.616Z,80.61
2022-11-23T02:30:20.417Z,80.67
2022-11-23T02:32:48.555Z,80.33
2022-11-23T02:35:18.942Z,80.43
2022-11-23T02:37:56.235Z,80.27
2022-11-23T02:40:29.808Z,80.37
2022-11-23T02:43:04.368Z,80.43
2022-11-23T02:45:50.151Z,80.25
2022-11-23T02:48:24.053Z,80.26
2022-11-23T02:50:54.594Z,80.44
2022-11-23T02:53:28.758Z,80.44
2022-11-23T02:55:56.751Z,80.75
2022-11-23T02:58:27.171Z,80.74
2022-11-23T03:00:55.170Z,80.97
2022-11-23T03:03:31.072Z,80.98
2022-11-23T03:06:02.454Z,80.39
2022-11-23T03:08:34.329Z,80.33
2022-11-23T03:11:03.135Z,80.43
2022-11-23T03:13:33.637Z,80.60
2022-11-23T03:16:06.257Z,80.70
2022-11-23T03:18:34.764Z,80.73
2022-11-23T03:21:05.455Z,80.12
2022-11-23T03:23:33.549Z,80.15
2022-11-23T03:26:12.826Z,80.50
2022-11-23T03:28:54.823Z,80.29
2022-11-23T03:31:24.551Z,80.35
2022-11-23T03:33:53.275Z,80.26
2022-11-23T03:36:27.105Z,80.65
2022-11-23T03:38:55.090Z,80.65
2022-11-23T03:41:36.271Z,80.60
2022-11-23T03:44:05.880Z,80.40
2022-11-23T03:46:34.088Z,80.93
2022-11-23T03:49:02.024Z,80.41
2022-11-23T03:51:39.340Z,80.87
2022-11-23T03:54:08.944Z,80.83
2022-11-23T03:59:20.523Z,80.73
2022-11-23T04:01:51.352Z,80.94
2022-11-23T04:04:24.123Z,80.84
2022-11-23T04:07:11.102Z,80.66
2022-11-23T04:09:42.978Z,80.64
2022-11-23T04:12:34.205Z,80.80
2022-11-23T04:15:03.608Z,80.89
2022-11-23T04:17:31.511Z,80.62
2022-11-23T04:19:59.607Z,81.20
2022-11-23T04:22:30.482Z,80.81
2022-11-23T04:24:58.600Z,80.79
2022-11-23T04:27:26.781Z,81.59
2022-11-23T04:30:00.496Z,81.93
2022-11-23T04:32:33.157Z,82.08
2022-11-23T04:35:01.545Z,82.00
2022-11-23T04:37:29.750Z,81.61
2022-11-23T04:40:01.392Z,81.98
2022-11-23T04:43:01.584Z,82.26
2022-11-23T04:45:32.074Z,82.27
2022-11-23T04:48:09.273Z,81.91
2022-11-23T04:50:40.506Z,82.11
2022-11-23T04:53:10.269Z,82.39
2022-11-23T04:55:43.457Z,82.59
2022-11-23T04:58:14.186Z,82.16
2022-11-23T05:00:42.150Z,81.78
2022-11-23T05:03:13.404Z,81.56
2022-11-23T05:05:46.180Z,82.12
2022-11-23T05:08:14.781Z,81.84
2022-11-23T05:10:55.101Z,81.92
2022-11-23T05:13:23.592Z,81.99
2022-11-23T05:15:54.980Z,82.79
2022-11-23T05:18:28.485Z,82.82
2022-11-23T05:21:01.795Z,82.90
2022-11-23T05:23:30.505Z,82.35
2022-11-23T05:26:00.080Z,82.85
2022-11-23T05:28:40.276Z,82.42
2022-11-23T05:31:10.890Z,82.10
2022-11-23T05:33:40.530Z,82.41
2022-11-23T05:36:14.389Z,82.07
2022-11-23T05:38:45.150Z,81.61
2022-11-23T05:41:19.670Z,82.47
2022-11-23T05:43:50.185Z,82.24
2022-11-23T05:46:22.984Z,82.36
2022-11-23T05:48:52.793Z,82.30
2022-11-23T05:51:20.698Z,81.62
2022-11-23T05:53:50.506Z,82.03
2022-11-23T05:56:26.933Z,81.50
2022-11-23T05:59:13.535Z,81.53
2022-11-23T06:01:44.462Z,81.77
2022-11-23T06:04:17.622Z,81.62
2022-11-23T06:06:47.030Z,81.57
2022-11-23T06:09:14.876Z,81.70
2022-11-23T06:11:48.136Z,82.11
2022-11-23T06:14:19.717Z,81.20
2022-11-23T06:16:48.605Z,81.87
2022-11-23T06:19:38.362Z,81.73
2022-11-23T06:22:07.036Z,81.35
2022-11-23T06:24:41.949Z,81.33
2022-11-23T06:27:30.228Z,81.84
2022-11-23T06:29:59.657Z,81.66
2022-11-23T06:32:29.492Z,81.45
2022-11-23T06:35:01.405Z,81.45
2022-11-23T06:37:32.911Z,81.33
2022-11-23T06:40:01.901Z,81.66
2022-11-23T06:42:45.132Z,81.33
2022-11-23T06:45:25.205Z,81.21
2022-11-23T06:47:57.513Z,81.29
2022-11-23T06:50:27.384Z,81.36
2022-11-23T06:52:57.204Z,81.68
2022-11-23T06:55:35.719Z,81.72
2022-11-23T06:58:05.917Z,82.05
2022-11-23T07:00:34.188Z,82.63
2022-11-23T07:03:09.212Z,82.36
2022-11-23T07:05:44.164Z,82.24
2022-11-23T07:08:14.560Z,82.41
2022-11-23T07:10:42.864Z,82.62
2022-11-23T07:13:18.500Z,82.52
2022-11-23T07:15:47.276Z,82.83
2022-11-23T07:18:15.899Z,83.21
2022-11-23T07:20:51.483Z,82.63
2022-11-23T07:23:19.291Z,82.26
2022-11-23T07:25:47.445Z,82.70
2022-11-23T07:28:15.320Z,83.17
2022-11-23T07:30:43.360Z,83.17
2022-11-23T07:33:12.831Z,82.12
2022-11-23T07:35:42.321Z,82.27
2022-11-23T07:38:11.806Z,81.96
2022-11-23T07:40:40.939Z,81.58
2022-11-23T07:43:16.500Z,81.06
2022-11-23T07:45:49.284Z,80.75
2022-11-23T07:48:18.778Z,80.88
2022-11-23T07:50:46.577Z,80.41
2022-11-23T07:53:15.897Z,80.43
2022-11-23T07:55:43.806Z,80.27
2022-11-23T07:58:12.316Z,79.61
2022-11-23T08:00:40.436Z,79.36
2022-11-23T08:05:58.374Z,79.49
2022-11-23T08:08:30.473Z,80.09
2022-11-23T08:10:58.280Z,80.19
2022-11-23T08:13:26.145Z,79.64
2022-11-23T08:15:55.650Z,80.05
2022-11-23T08:18:30.563Z,80.12
2022-11-23T08:21:01.448Z,80.62
2022-11-23T08:23:39.331Z,80.42
2022-11-23T08:26:12.039Z,80.53
2022-11-23T08:28:41.642Z,79.86
2022-11-23T08:31:11.222Z,79.99
2022-11-23T08:33:39.087Z,80.09
2022-11-23T08:36:08.779Z,79.99
2022-11-23T08:38:37.971Z,79.84
2022-11-23T08:41:06.524Z,79.92
2022-11-23T08:43:34.864Z,79.93
2022-11-23T08:46:07.931Z,79.40
2022-11-23T08:48:38.635Z,79.80
2022-11-23T08:51:06.750Z,79.41
2022-11-23T08:53:34.581Z,79.17
2022-11-23T08:56:04.790Z,79.20
2022-11-23T08:58:33.217Z,79.62
2022-11-23T09:01:04.419Z,79.71
2022-11-23T09:03:32.282Z,79.47
2022-11-23T09:06:01.746Z,79.78
2022-11-23T09:08:30.028Z,80.12
2022-11-23T09:11:01.575Z,79.83
2022-11-23T09:13:38.270Z,79.66
2022-11-23T09:16:07.983Z,79.54
2022-11-23T09:18:36.676Z,79.88
2022-11-23T09:21:07.458Z,79.68
2022-11-23T09:23:36.860Z,79.45
2022-11-23T09:26:06.343Z,79.79
2022-11-23T09:28:44.749Z,79.47
2022-11-23T09:31:13.198Z,79.28
2022-11-23T09:33:41.006Z,79.40
2022-11-23T09:36:09.761Z,79.27
2022-11-23T09:38:56.489Z,79.50
2022-11-23T09:42:04.303Z,79.38
2022-11-23T09:44:52.391Z,79.23
2022-11-23T09:47:37.054Z,79.11
2022-11-23T09:50:17.213Z,79.20
2022-11-23T09:52:51.367Z,78.30
2022-11-23T09:55:37.652Z,78.84
2022-11-23T09:58:07.740Z,77.99
2022-11-23T10:00:43.282Z,78.54
2022-11-23T10:03:18.126Z,78.07
2022-11-23T10:05:58.850Z,78.66
2022-11-23T10:09:07.039Z,78.45
2022-11-23T10:11:52.554Z,78.52
2022-11-23T10:14:47.667Z,78.21
2022-11-23T10:17:30.007Z,78.53
2022-11-23T10:20:16.715Z,78.62
2022-11-23T10:22:52.646Z,78.13
2022-11-23T10:25:21.986Z,78.14
2022-11-23T10:27:52.138Z,78.05
2022-11-23T10:30:21.582Z,78.17
2022-11-23T10:32:59.594Z,78.17
2022-11-23T10:35:30.771Z,78.05
2022-11-23T10:38:18.420Z,77.68
2022-11-23T10:40:58.896Z,77.84
2022-11-23T10:43:30.605Z,77.80
2022-11-23T10:46:32.834Z,77.27
2022-11-23T10:49:18.123Z,77.55
2022-11-23T10:51:55.607Z,77.49
2022-11-23T10:54:29.691Z,77.46
2022-11-23T10:57:00.168Z,76.74
2022-11-23T10:59:40.731Z,77.07
2022-11-23T11:02:24.067Z,77.97
2022-11-23T11:05:46.399Z,77.78
2022-11-23T11:08:16.930Z,77.93
2022-11-23T11:10:50.088Z,78.39
2022-11-23T11:13:27.956Z,78.19
2022-11-23T11:15:58.177Z,78.48
2022-11-23T11:18:32.567Z,77.68
2022-11-23T11:21:05.434Z,78.32
2022-11-23T11:23:35.960Z,78.11
2022-11-23T11:26:07.894Z,78.31
2022-11-23T11:28:39.225Z,78.63
2022-11-23T11:31:44.215Z,77.86
2022-11-23T11:34:21.544Z,77.49
2022-11-23T11:37:04.464Z,77.51
2022-11-23T11:39:38.677Z,77.40
2022-11-23T11:42:15.102Z,76.78
2022-11-23T11:44:46.235Z,77.28
2022-11-23T11:47:26.528Z,77.28
2022-11-23T11:49:59.068Z,77.57
2022-11-23T11:52:37.585Z,77.30
2022-11-23T11:55:13.330Z,77.41
2022-11-23T11:57:45.336Z,77.62
2022-11-23T12:00:19.792Z,78.03
2022-11-23T12:02:58.522Z,77.38
2022-11-23T12:05:31.353Z,77.36
2022-11-23T12:08:04.231Z,77.80
2022-11-23T12:10:39.753Z,77.85
2022-11-23T12:13:13.320Z,77.45
2022-11-23T12:15:49.933Z,77.42
2022-11-23T12:18:45.849Z,78.05
2022-11-23T12:21:27.447Z,78.04
2022-11-23T12:24:05.233Z,77.56
2022-11-23T12:26:45.812Z,77.53
2022-11-23T12:29:46.051Z,77.06
2022-11-23T12:32:26.106Z,77.11
2022-11-23T12:35:22.673Z,77.91
2022-11-23T12:38:01.911Z,78.09
2022-11-23T12:40:49.647Z,78.10
2022-11-23T12:43:25.024Z,77.38
2022-11-23T12:46:09.538Z,78.16
2022-11-23T12:48:50.781Z,78.03
2022-11-23T12:51:26.894Z,77.93
2022-11-23T12:54:13.867Z,77.76
2022-11-23T12:57:00.793Z,77.21
2022-11-23T12:59:41.259Z,77.68
2022-11-23T13:02:25.805Z,77.43
2022-11-23T13:05:02.592Z,77.24
2022-11-23T13:08:11.505Z,78.20
2022-11-23T13:10:51.091Z,77.88
2022-11-23T13:13:33.734Z,78.22
2022-11-23T13:16:19.457Z,78.12
2022-11-23T13:19:04.867Z,78.25
2022-11-23T13:21:38.315Z,78.49
2022-11-23T13:24:25.537Z,78.37
2022-11-23T13:27:31.973Z,78.45
2022-11-23T13:30:09.364Z,78.70
2022-11-23T13:32:56.592Z,78.29
2022-11-23T13:35:56.305Z,78.07
2022-11-23T13:38:29.326Z,77.82
2022-11-23T13:40:57.577Z,77.44
2022-11-23T13:43:31.013Z,76.25
2022-11-23T13:46:21.896Z,76.04
2022-11-23T13:48:59.020Z,75.71
2022-11-23T13:51:30.454Z,76.38
2022-11-23T13:54:03.648Z,77.20
2022-11-23T13:56:35.152Z,77.35
2022-11-23T13:59:32.063Z,77.71
2022-11-23T14:02:29.888Z,78.11
2022-11-23T14:05:54.683Z,77.40
2022-11-23T14:08:23.270Z,77.78
2022-11-23T14:10:52.014Z,77.79
2022-11-23T14:13:24.990Z,78.35
2022-11-23T14:15:57.032Z,77.80
2022-11-23T14:18:47.651Z,77.59
2022-11-23T14:21:17.969Z,77.43
2022-11-23T14:24:25.558Z,78.33
2022-11-23T14:27:39.064Z,77.77
2022-11-23T14:30:08.090Z,77.64
2022-11-23T14:32:48.822Z,77.20
2022-11-23T14:35:27.847Z,78.03
2022-11-23T14:38:13.964Z,78.43
2022-11-23T14:41:01.830Z,77.75
2022-11-23T14:43:30.469Z,78.50
2022-11-23T14:46:02.525Z,78.19
2022-11-23T14:48:34.823Z,77.84
2022-11-23T14:51:07.317Z,78.51
2022-11-23T14:53:37.219Z,78.01
2022-11-23T14:56:06.480Z,78.24
2022-11-23T14:58:34.618Z,77.81
2022-11-23T15:01:03.849Z,77.52
2022-11-23T15:06:42.317Z,78.54
2022-11-23T15:09:25.435Z,78.41
2022-11-23T15:12:06.052Z,77.94
2022-11-23T15:14:34.969Z,78.49
2022-11-23T15:17:16.898Z,78.49
2022-11-23T15:19:44.814Z,78.00
2022-11-23T15:22:20.279Z,78.55
2022-11-23T15:24:49.552Z,78.29
2022-11-23T15:27:28.326Z,78.34
2022-11-23T15:29:59.487Z,78.46
2022-11-23T15:32:31.299Z,78.74
2022-11-23T15:35:11.650Z,78.53
2022-11-23T15:37:46.136Z,78.38
2022-11-23T15:40:16.784Z,78.55
2022-11-23T15:42:47.915Z,78.73
2022-11-23T15:45:38.120Z,78.28
2022-11-23T15:48:11.515Z,78.92
2022-11-23T15:50:48.335Z,78.86
2022-11-23T15:53:17.926Z,78.43
2022-11-23T15:55:46.347Z,78.39
2022-11-23T15:58:17.867Z,78.58
2022-11-23T16:00:51.495Z,78.62
2022-11-23T16:03:31.844Z,78.46
2022-11-23T16:06:20.281Z,78.33
2022-11-23T16:08:49.702Z,78.42
2022-11-23T16:11:32.766Z,78.71
2022-11-23T16:14:18.860Z,78.76
2022-11-23T16:17:02.019Z,78.57
2022-11-23T16:19:32.284Z,79.14
2022-11-23T16:22:03.892Z,78.76
2022-11-23T16:24:36.797Z,79.08
2022-11-23T16:27:14.265Z,79.46
2022-11-23T16:29:42.708Z,79.52
2022-11-23T16:32:24.240Z,79.91
2022-11-23T16:34:52.401Z,79.85
2022-11-23T16:37:20.620Z,80.08
2022-11-23T16:39:49.984Z,79.71
2022-11-23T16:42:18.361Z,80.18
2022-11-23T16:44:46.183Z,80.02
2022-11-23T16:47:21.643Z,80.12
2022-11-23T16:49:53.757Z,80.53
2022-11-23T16:52:24.512Z,80.49
2022-11-23T16:54:53.913Z,80.37
2022-11-23T16:57:28.390Z,80.65
2022-11-23T16:59:56.704Z,80.54
2022-11-23T17:02:25.436Z,80.92
2022-11-23T17:04:53.454Z,81.05
2022-11-23T17:07:21.407Z,80.92
2022-11-23T17:09:53.810Z,80.59
2022-11-23T17:12:21.961Z,81.00
2022-11-23T17:14:55.922Z,80.80
2022-11-23T17:17:24.109Z,80.79
2022-11-23T17:19:53.237Z,80.72
2022-11-23T17:22:21.476Z,80.85
2022-11-23T17:24:52.701Z,80.53
2022-11-23T17:27:24.443Z,81.16
2022-11-23T17:29:57.484Z,80.95
2022-11-23T17:32:25.410Z,80.53
2022-11-23T17:34:53.416Z,80.86
2022-11-23T17:37:25.877Z,80.76
2022-11-23T17:39:53.891Z,80.68
2022-11-23T17:42:25.787Z,80.09
2022-11-23T17:44:54.099Z,80.66
2022-11-23T17:47:26.481Z,80.18
2022-11-23T17:49:54.677Z,79.78
2022-11-23T17:52:23.208Z,80.73
2022-11-23T17:54:51.368Z,80.50
2022-11-23T17:57:28.257Z,80.61
2022-11-23T18:00:03.666Z,80.66
2022-11-23T18:02:39.572Z,80.55
2022-11-23T18:05:07.930Z,81.16
2022-11-23T18:07:36.764Z,80.91
2022-11-23T18:10:05.347Z,80.74
2022-11-23T18:12:37.755Z,81.06
2022-11-23T18:15:07.236Z,81.16
2022-11-23T18:17:35.392Z,80.65
2022-11-23T18:20:03.943Z,80.16
2022-11-23T18:22:40.527Z,80.18
2022-11-23T18:25:09.629Z,80.45
2022-11-23T18:27:39.036Z,80.35
2022-11-23T18:30:08.305Z,80.20
2022-11-23T18:32:36.352Z,80.23
2022-11-23T18:35:07.259Z,80.00
2022-11-23T18:37:38.164Z,79.60
2022-11-23T18:40:10.042Z,79.65
2022-11-23T18:42:39.236Z,80.04
2022-11-23T18:45:08.746Z,79.97
2022-11-23T18:47:36.734Z,79.07
2022-11-23T18:50:06.869Z,79.92
2022-11-23T18:52:35.159Z,79.83
2022-11-23T18:55:03.220Z,79.68
2022-11-23T18:57:31.051Z,79.16
2022-11-23T19:00:00.846Z,79.26
2022-11-23T19:02:29.193Z,79.56
2022-11-23T19:04:59.855Z,79.76
2022-11-23T19:07:27.941Z,79.58
2022-11-23T19:09:55.961Z,79.94
2022-11-23T19:12:26.832Z,79.84
2022-11-23T19:14:54.764Z,80.16
2022-11-23T19:17:23.942Z,79.61
2022-11-23T19:19:51.883Z,79.56
2022-11-23T19:22:19.848Z,78.99
2022-11-23T19:24:48.037Z,79.33
2022-11-23T19:27:15.918Z,79.26
2022-11-23T19:29:43.841Z,79.60
2022-11-23T19:32:11.908Z,79.40
2022-11-23T19:34:41.217Z,79.44
2022-11-23T19:37:09.133Z,79.49
2022-11-23T19:39:37.179Z,79.62
2022-11-23T19:42:05.286Z,79.38
2022-11-23T19:44:33.176Z,79.50
2022-11-23T19:47:02.857Z,79.41
2022-11-23T19:49:32.064Z,79.42
2022-11-23T19:52:01.864Z,79.41
2022-11-23T19:54:29.716Z,79.64
2022-11-23T19:56:57.570Z,79.90
2022-11-23T19:59:25.412Z,79.14
2022-11-23T20:01:53.343Z,79.01
2022-11-23T20:04:21.329Z,79.13
2022-11-23T20:06:49.281Z,79.26
2022-11-23T20:09:21.052Z,78.92
2022-11-23T20:11:51.234Z,78.85
2022-11-23T20:14:19.848Z,78.40
2022-11-23T20:16:48.325Z,79.03
2022-11-23T20:19:16.374Z,78.25
2022-11-23T20:21:44.291Z,77.93
2022-11-23T20:24:14.039Z,78.02
2022-11-23T20:26:43.903Z,78.22
2022-11-23T20:29:13.652Z,78.02
2022-11-23T20:31:41.681Z,77.73
2022-11-23T20:34:14.236Z,78.18
2022-11-23T20:36:45.379Z,77.83
2022-11-23T20:39:14.142Z,78.12
2022-11-23T20:41:45.147Z,78.22
2022-11-23T20:44:15.269Z,77.92
2022-11-23T20:49:32.814Z,78.39
2022-11-23T20:52:01.707Z,78.14
2022-11-23T20:54:29.900Z,78.01
2022-11-23T20:57:00.236Z,77.77
2022-11-23T20:59:29.030Z,77.97
2022-11-23T21:01:59.956Z,77.83
2022-11-23T21:04:28.104Z,78.05
2022-11-23T21:06:55.996Z,78.42
2022-11-23T21:09:23.903Z,77.83
2022-11-23T21:12:09.276Z,78.00
2022-11-23T21:14:38.924Z,78.02
2022-11-23T21:17:07.219Z,78.30
2022-11-23T21:19:37.773Z,77.96
2022-11-23T21:22:07.172Z,77.89
2022-11-23T21:24:35.984Z,78.25
2022-11-23T21:27:04.608Z,78.17
2022-11-23T21:29:35.302Z,78.41
2022-11-23T21:32:05.545Z,78.13
2022-11-23T21:34:33.987Z,78.01
2022-11-23T21:37:05.243Z,78.62
2022-11-23T21:39:33.492Z,78.52
2022-11-23T21:42:01.713Z,78.29
2022-11-23T21:44:32.720Z,78.84
2022-11-23T21:47:00.832Z,78.61
2022-11-23T21:49:30.212Z,78.99
2022-11-23T21:51:58.017Z,78.46
2022-11-23T21:54:30.911Z,78.72
2022-11-23T21:56:58.906Z,78.74
2022-11-23T21:59:26.920Z,79.05
2022-11-23T22:01:58.811Z,78.55
2022-11-23T22:04:29.985Z,78.72
2022-11-23T22:06:59.285Z,78.75
2022-11-23T22:09:27.510Z,79.18
2022-11-23T22:11:55.636Z,78.53
2022-11-23T22:14:23.627Z,78.54
2022-11-23T22:16:53.720Z,78.87
2022-11-23T22:19:22.084Z,78.74
2022-11-23T22:21:50.313Z,78.91
2022-11-23T22:24:22.221Z,78.48
2022-11-23T22:26:54.823Z,78.47
2022-11-23T22:29:22.823Z,79.04
2022-11-23T22:31:50.973Z,78.93
2022-11-23T22:34:19.337Z,78.83
2022-11-23T22:36:47.461Z,79.17
2022-11-23T22:39:15.669Z,79.04
2022-11-23T22:41:45.220Z,79.20
2022-11-23T22:44:16.347Z,79.52
2022-11-23T22:46:46.049Z,79.23
2022-11-23T22:49:17.339Z,79.72
2022-11-23T22:51:51.344Z,79.64
2022-11-23T22:54:19.358Z,80.02
2022-11-23T22:56:51.764Z,79.98
2022-11-23T22:59:20.083Z,80.29
2022-11-23T23:01:47.938Z,79.96
2022-11-23T23:04:18.327Z,80.36
2022-11-23T23:06:56.058Z,80.36
2022-11-23T23:09:23.990Z,80.24
2022-11-23T23:11:53.381Z,80.67
2022-11-23T23:14:28.379Z,80.05
2022-11-23T23:17:00.882Z,80.02
2022-11-23T23:19:32.016Z,80.17
2022-11-23T23:22:00.137Z,80.07
2022-11-23T23:24:28.088Z,80.64
2022-11-23T23:27:00.512Z,80.37
2022-11-23T23:29:29.848Z,80.52
2022-11-23T23:32:03.925Z,80.51
2022-11-23T23:34:33.103Z,80.24
2022-11-23T23:37:01.324Z,80.18
2022-11-23T23:39:32.322Z,80.30
2022-11-23T23:42:02.292Z,80.36
2022-11-23T23:44:30.378Z,80.13
2022-11-23T23:46:58.426Z,80.45
2022-11-23T23:49:31.477Z,80.46
2022-11-23T23:52:02.966Z,80.63
2022-11-23T23:54:31.104Z,80.80
2022-11-23T23:57:01.225Z,80.87
2022-11-23T23:59:29.260Z,81.14
